createdAt,value
2022-10-06T00:00:01.158Z,0.40
2022-10-06T00:05:10.431Z,0.30
2022-10-06T00:10:16.595Z,0.70
2022-10-06T00:15:24.483Z,0.43
2022-10-06T00:20:33.231Z,0.50
2022-10-06T00:25:39.218Z,0.50
2022-10-06T00:30:45.163Z,0.47
2022-10-06T00:36:00.967Z,0.40
2022-10-06T00:41:06.680Z,0.30
2022-10-06T00:46:14.427Z,0.53
2022-10-06T00:51:23.983Z,0.70
2022-10-06T00:56:29.846Z,0.70
2022-10-06T01:01:36.361Z,0.53
2022-10-06T01:06:51.488Z,0.57
2022-10-06T01:12:00.466Z,0.70
2022-10-06T01:17:10.563Z,0.70
2022-10-06T01:22:25.543Z,0.60
2022-10-06T01:27:36.130Z,0.70
2022-10-06T01:32:42.736Z,0.77
2022-10-06T01:37:48.538Z,0.80
2022-10-06T01:42:56.429Z,0.60
2022-10-06T01:48:05.259Z,0.70
2022-10-06T01:53:10.762Z,0.80
2022-10-06T01:58:21.122Z,0.70
2022-10-06T02:03:26.908Z,0.73
2022-10-06T02:08:32.613Z,0.90
2022-10-06T02:13:42.434Z,0.73
2022-10-06T02:18:48.106Z,0.80
2022-10-06T02:23:53.838Z,1.10
2022-10-06T02:29:02.116Z,1.03
2022-10-06T02:34:07.640Z,0.90
2022-10-06T02:39:13.842Z,1.20
2022-10-06T02:44:25.052Z,1.00
2022-10-06T02:49:32.655Z,0.70
2022-10-06T02:54:38.722Z,0.98
2022-10-06T02:59:46.819Z,1.33
2022-10-06T03:04:52.727Z,1.20
2022-10-06T03:09:58.242Z,1.08
2022-10-06T03:15:09.097Z,1.10
2022-10-06T03:20:14.935Z,0.97
2022-10-06T03:25:22.276Z,1.27
2022-10-06T03:30:30.505Z,1.07
2022-10-06T03:35:36.183Z,1.00
2022-10-06T03:40:41.499Z,1.40
2022-10-06T03:45:58.494Z,0.90
2022-10-06T03:51:06.462Z,1.07
2022-10-06T03:56:15.224Z,0.88
2022-10-06T04:01:26.610Z,1.97
2022-10-06T04:06:35.162Z,1.10
2022-10-06T04:11:42.741Z,1.35
2022-10-06T04:16:52.767Z,1.27
2022-10-06T04:22:07.431Z,1.47
2022-10-06T04:27:26.266Z,1.08
2022-10-06T04:32:40.873Z,1.20
2022-10-06T04:37:46.854Z,0.90
2022-10-06T04:42:52.715Z,1.33
2022-10-06T04:48:00.692Z,1.97
2022-10-06T04:53:06.480Z,0.87
2022-10-06T04:58:12.822Z,1.23
2022-10-06T05:03:21.197Z,1.30
2022-10-06T05:08:27.160Z,1.80
2022-10-06T05:13:33.657Z,1.35
2022-10-06T05:18:43.663Z,1.43
2022-10-06T05:23:49.743Z,1.17
2022-10-06T05:28:55.302Z,1.83
2022-10-06T05:34:03.822Z,1.03
2022-10-06T05:39:09.406Z,1.07
2022-10-06T05:44:23.225Z,1.65
2022-10-06T05:49:31.614Z,1.50
2022-10-06T05:54:40.491Z,1.10
2022-10-06T05:59:48.080Z,2.15
2022-10-06T06:04:56.406Z,1.17
2022-10-06T06:10:01.676Z,1.73
2022-10-06T06:15:21.070Z,1.90
2022-10-06T06:20:36.608Z,1.57
2022-10-06T06:25:44.363Z,1.63
2022-10-06T06:30:51.016Z,1.67
2022-10-06T06:36:01.454Z,1.87
2022-10-06T06:41:06.985Z,3.40
2022-10-06T06:46:12.969Z,3.67
2022-10-06T06:51:40.659Z,1.60
2022-10-06T06:56:46.897Z,1.30
2022-10-06T07:01:52.479Z,1.52
2022-10-06T07:07:03.207Z,1.13
2022-10-06T07:12:13.659Z,1.43
2022-10-06T07:17:39.375Z,2.40
2022-10-06T07:23:00.290Z,2.43
2022-10-06T07:28:07.094Z,2.20
2022-10-06T07:33:16.060Z,2.40
2022-10-06T07:38:27.675Z,1.87
2022-10-06T07:43:35.059Z,1.77
2022-10-06T07:48:41.106Z,1.95
2022-10-06T07:53:50.860Z,1.90
2022-10-06T07:59:03.337Z,1.50
2022-10-06T08:04:08.903Z,1.90
2022-10-06T08:09:17.083Z,2.17
2022-10-06T08:14:24.322Z,2.10
2022-10-06T08:19:29.751Z,1.45
2022-10-06T08:25:04.219Z,2.60
2022-10-06T08:30:07.695Z,1.70
2022-10-06T08:35:14.325Z,2.10
2022-10-06T08:40:23.014Z,2.27
2022-10-06T08:45:38.611Z,1.97
2022-10-06T08:50:54.098Z,1.42
2022-10-06T08:56:11.225Z,1.70
2022-10-06T09:01:20.044Z,2.47
2022-10-06T09:06:51.886Z,1.70
2022-10-06T09:12:07.386Z,1.80
2022-10-06T09:17:18.955Z,2.07
2022-10-06T09:22:26.123Z,1.70
2022-10-06T09:27:36.971Z,1.88
2022-10-06T09:32:48.481Z,2.07
2022-10-06T09:37:58.869Z,1.63
2022-10-06T09:43:08.516Z,1.73
2022-10-06T09:48:16.059Z,3.77
2022-10-06T09:53:21.814Z,1.92
2022-10-06T09:58:35.082Z,2.93
2022-10-06T10:04:08.512Z,2.90
2022-10-06T10:09:34.537Z,1.75
2022-10-06T10:14:42.638Z,1.98
2022-10-06T10:19:53.160Z,1.57
2022-10-06T10:25:07.475Z,1.23
2022-10-06T10:30:17.058Z,1.30
2022-10-06T10:35:28.847Z,1.43
2022-10-06T10:40:38.940Z,1.80
2022-10-06T10:45:50.572Z,1.30
2022-10-06T10:51:03.366Z,0.90
2022-10-06T10:56:12.016Z,2.57
2022-10-06T11:01:30.970Z,1.13
2022-10-06T11:06:56.306Z,1.15
2022-10-06T11:12:17.320Z,1.07
2022-10-06T11:17:44.223Z,1.10
2022-10-06T11:22:57.601Z,1.15
2022-10-06T11:28:11.757Z,0.90
2022-10-06T11:33:23.843Z,1.20
2022-10-06T11:38:38.438Z,0.90
2022-10-06T11:43:50.036Z,1.00
2022-10-06T11:49:33.034Z,0.87
2022-10-06T11:54:50.183Z,3.20
2022-10-06T11:59:57.423Z,1.42
2022-10-06T12:05:55.666Z,1.77
2022-10-06T12:11:01.667Z,1.38
2022-10-06T12:21:57.364Z,2.20
2022-10-06T12:27:28.735Z,1.70
2022-10-06T12:32:51.721Z,1.30
2022-10-06T12:38:05.082Z,1.00
2022-10-06T12:43:29.084Z,1.58
2022-10-06T12:48:42.732Z,1.08
2022-10-06T12:53:58.630Z,0.97
2022-10-06T12:59:23.003Z,0.85
2022-10-06T13:04:53.179Z,1.10
2022-10-06T13:10:20.233Z,1.27
2022-10-06T13:15:29.200Z,1.00
2022-10-06T13:20:39.607Z,1.27
2022-10-06T13:25:50.662Z,0.93
2022-10-06T13:30:57.618Z,0.95
2022-10-06T13:36:03.891Z,1.00
2022-10-06T13:41:23.257Z,0.80
2022-10-06T13:46:31.173Z,0.90
2022-10-06T13:51:36.820Z,0.95
2022-10-06T13:56:45.376Z,1.73
2022-10-06T14:01:51.055Z,1.15
2022-10-06T14:06:59.714Z,1.17
2022-10-06T14:12:10.727Z,1.03
2022-10-06T14:17:24.859Z,0.82
2022-10-06T14:22:35.235Z,0.90
2022-10-06T14:27:43.717Z,1.07
2022-10-06T14:32:49.513Z,1.02
2022-10-06T14:37:54.872Z,0.80
2022-10-06T14:43:02.665Z,0.97
2022-10-06T14:48:08.682Z,0.70
2022-10-06T14:53:17.139Z,0.90
2022-10-06T14:58:25.160Z,0.60
2022-10-06T15:03:30.680Z,0.90
2022-10-06T15:08:36.434Z,1.60
2022-10-06T15:13:44.298Z,0.80
2022-10-06T15:18:49.935Z,0.70
2022-10-06T15:23:59.122Z,1.00
2022-10-06T15:29:07.187Z,0.47
2022-10-06T15:34:15.107Z,0.80
2022-10-06T15:39:22.195Z,1.33
2022-10-06T15:44:34.607Z,0.82
2022-10-06T15:49:41.975Z,1.17
2022-10-06T15:54:48.961Z,0.80
2022-10-06T15:59:57.601Z,0.60
2022-10-06T16:05:15.248Z,0.80
2022-10-06T16:10:20.983Z,0.70
2022-10-06T16:15:29.355Z,0.80
2022-10-06T16:20:34.612Z,1.13
2022-10-06T16:25:40.190Z,1.40
2022-10-06T16:30:57.534Z,0.93
2022-10-06T16:36:02.976Z,0.90
2022-10-06T16:41:08.963Z,1.00
2022-10-06T16:46:19.237Z,0.90
2022-10-06T16:51:27.143Z,0.77
2022-10-06T16:56:34.309Z,0.80
2022-10-06T17:01:42.367Z,0.70
2022-10-06T17:06:50.526Z,0.70
2022-10-06T17:11:58.443Z,1.13
2022-10-06T17:17:06.676Z,0.90
2022-10-06T17:22:12.145Z,1.08
2022-10-06T17:27:17.987Z,1.10
2022-10-06T17:32:26.562Z,0.70
2022-10-06T17:37:31.995Z,1.30
2022-10-06T17:42:38.124Z,1.00
2022-10-06T17:47:46.603Z,1.50
2022-10-06T17:52:51.803Z,1.20
2022-10-06T17:57:59.177Z,1.30
2022-10-06T18:03:09.281Z,1.33
2022-10-06T18:08:14.692Z,1.85
2022-10-06T18:13:20.191Z,1.27
2022-10-06T18:18:28.296Z,5.32
2022-10-06T18:23:36.767Z,3.45
2022-10-06T18:28:42.220Z,3.37
2022-10-06T18:39:17.308Z,2.53
2022-10-06T18:44:43.167Z,1.53
2022-10-06T18:49:52.962Z,2.22
2022-10-06T18:54:58.696Z,1.40
2022-10-06T19:00:04.244Z,1.30
2022-10-06T19:05:12.630Z,1.70
2022-10-06T19:10:17.925Z,1.52
2022-10-06T19:15:23.521Z,1.67
2022-10-06T19:20:32.135Z,1.58
2022-10-06T19:25:37.827Z,3.03
2022-10-06T19:30:43.253Z,3.77
2022-10-06T19:35:57.669Z,3.55
2022-10-06T19:41:16.957Z,3.53
2022-10-06T19:46:22.844Z,3.20
2022-10-06T19:51:31.025Z,2.58
2022-10-06T19:56:36.820Z,2.30
2022-10-06T20:01:42.456Z,2.20
2022-10-06T20:06:50.723Z,2.67
2022-10-06T20:11:56.075Z,2.73
2022-10-06T20:17:02.909Z,2.60
2022-10-06T20:22:11.517Z,2.50
2022-10-06T20:27:17.387Z,3.17
2022-10-06T20:32:23.465Z,3.03
2022-10-06T20:37:31.564Z,2.95
2022-10-06T20:42:36.997Z,3.00
2022-10-06T20:47:42.578Z,3.43
2022-10-06T20:52:51.497Z,3.60
2022-10-06T20:57:57.352Z,4.17
2022-10-06T21:03:03.876Z,3.97
2022-10-06T21:08:12.016Z,4.25
2022-10-06T21:13:17.406Z,3.90
2022-10-06T21:18:23.377Z,3.60
2022-10-06T21:23:31.681Z,3.83
2022-10-06T21:28:38.555Z,3.20
2022-10-06T21:33:45.388Z,3.30
2022-10-06T21:38:56.208Z,3.20
2022-10-06T21:44:03.782Z,3.23
2022-10-06T21:49:12.560Z,2.92
2022-10-06T21:54:21.236Z,2.85
2022-10-06T21:59:26.941Z,3.10
2022-10-06T22:04:32.135Z,2.72
2022-10-06T22:09:40.331Z,2.95
2022-10-06T22:14:45.589Z,3.30
2022-10-06T22:19:51.163Z,3.00
2022-10-06T22:24:59.221Z,3.03
2022-10-06T22:30:05.406Z,2.63
2022-10-06T22:35:11.734Z,2.55
2022-10-06T22:40:19.795Z,3.23
2022-10-06T22:45:25.235Z,4.95
2022-10-06T22:50:31.064Z,8.88
2022-10-06T22:55:39.789Z,10.33
2022-10-06T23:00:45.883Z,12.65
2022-10-06T23:05:58.010Z,11.73
2022-10-06T23:11:11.354Z,10.30
2022-10-06T23:16:19.012Z,9.18
2022-10-06T23:21:27.845Z,8.57
2022-10-06T23:26:36.252Z,6.28
2022-10-06T23:31:41.676Z,6.07
2022-10-06T23:36:46.968Z,5.07
2022-10-06T23:41:55.169Z,4.65
2022-10-06T23:47:00.729Z,3.97
2022-10-06T23:52:06.904Z,3.87
2022-10-06T23:57:14.897Z,3.65
